Flight Track Log - Related Links

Times and Time Zones

All times are in EDT time to prevent confusion due to time zone crossing. See the SWA59 flight status page for this flight to view local times or setup timezone preferences in your user account.

Time Position Orientation Groundspeed Altitude Reporting Facility
EDT Latitude Longitude Course Direction KTS MPH feet Rate Location/Type
Tue 05:13:51 PM 39.8833 -75.2333 72° East 136 157 900  Level Philadelphia TRACON
Tue 05:14:46 PM 39.9000 -75.1667 72° East 196 226 3,000 2,632 Climbing Philadelphia TRACON
Tue 05:15:45 PM 39.9333 -75.1333 37° Northeast 215 247 5,900 3,000 Climbing Philadelphia TRACON
Tue 05:16:52 PM 39.9500 -75.2333 282° West 287 330 9,300 1,952 Climbing Philadelphia TRACON
Tue 05:17:51 PM 39.9333 -75.3333 258° West 317 365 10,000 382 Climbing Philadelphia TRACON
Tue 05:18:42 PM 39.9342 -75.4244 271° West 334 384 10,000 385 Level New Center
Tue 05:19:40 PM 39.9253 -75.5458 265° West 334 384 10,700 958 Climbing New Center
Tue 05:20:41 PM 39.9186 -75.6564 266° West 334 384 11,900 1,820 Climbing New Center
Tue 05:21:42 PM 39.9147 -75.7942 268° West 342 394 14,400 2,975 Climbing New Center
Tue 05:22:42 PM 39.9136 -75.9214 269° West 348 400 17,900 3,077 Climbing New Center
Tue 05:23:39 PM 39.9117 -76.0592 269° West 362 417 20,400 2,542 Climbing New Center
Tue 05:24:40 PM 39.9136 -76.2000 271° West 381 438 22,900 1,835 Climbing New Center
Tue 05:25:40 PM 39.9119 -76.3217 269° West 387 445 24,100 1,636 Climbing New Center
Tue 05:26:41 PM 39.9175 -76.4683 273° West 397 457 26,200 1,983 Climbing New Center
Tue 05:27:41 PM 39.9244 -76.6233 273° West 414 476 28,100 1,850 Climbing New Center
Tue 05:28:41 PM 39.9311 -76.7808 273° West 428 493 29,900 1,835 Climbing New Center
Tue 05:29:42 PM 39.9375 -76.9386 273° West 435 501 31,800 1,866 Climbing New Center
Tue 05:30:40 PM 39.9439 -77.0961 273° West 447 514 33,600 1,815 Climbing New Center
Tue 05:31:41 PM 39.9478 -77.2564 272° West 442 509 35,400 1,613 Climbing New Center
Tue 05:33:46 PM 39.9197 -77.6000 264° West 445 512 38,600 1,467 Climbing Cleveland Center
Tue 05:34:45 PM 39.9153 -77.7572 268° West 445 512 39,900 706 Climbing Cleveland Center
Tue 05:35:45 PM 39.9128 -77.9089 269° West 439 505 40,000 50 Climbing Cleveland Center
Tue 05:36:46 PM 39.9122 -78.0658 270° West 439 505 40,000  Level Cleveland Center
Tue 05:37:46 PM 39.9092 -78.2203 269° West 439 505 40,000  Level Cleveland Center
Tue 05:38:45 PM 39.9081 -78.3747 270° West 439 505 40,000  Level Cleveland Center
Tue 05:39:46 PM 39.9172 -78.5258 275° West 434 499 40,000  Level Cleveland Center
Tue 05:40:46 PM 39.9219 -78.6772 272° West 428 493 40,000  Level Cleveland Center
Tue 05:41:45 PM 39.9306 -78.8233 274° West 417 480 40,000  Level Cleveland Center
Tue 05:42:45 PM 39.9367 -78.9450 274° West 417 480 40,000  Level Cleveland Center
Tue 05:43:46 PM 39.9492 -79.1072 276° West 422 486 40,000  Level Cleveland Center
Tue 05:44:46 PM 39.9553 -79.2561 273° West 422 486 40,000  Level Cleveland Center
Tue 05:45:46 PM 39.9631 -79.4022 274° West 422 486 40,000  Level Cleveland Center
Tue 05:46:46 PM 39.9708 -79.5644 274° West 417 480 40,000  Level Cleveland Center
Tue 05:47:45 PM 39.9764 -79.7133 273° West 417 480 40,000  Level Cleveland Center
Tue 05:48:46 PM 39.9836 -79.8625 274° West 417 480 40,000  Level Cleveland Center
Tue 05:49:45 PM 39.9886 -80.0086 273° West 417 480 40,000  Level Cleveland Center
Tue 05:50:45 PM 39.9956 -80.1575 274° West 417 480 40,000  Level Cleveland Center
Tue 05:51:46 PM 40.0000 -80.3039 272° West 417 480 40,000  Level Cleveland Center
Tue 05:52:46 PM 40.0067 -80.4558 273° West 417 480 40,000  Level Cleveland Center
Tue 05:55:13 PM 40.0164 -80.8133 272° West 413 475 40,000  Level Indianapolis Center
Tue 05:56:15 PM 40.0147 -80.9642 269° West 413 475 40,000  Level Indianapolis Center
Tue 05:57:17 PM 40.0119 -81.1167 269° West 414 476 40,000  Level Indianapolis Center
Tue 05:58:19 PM 40.0103 -81.2661 269° West 410 472 40,000  Level Indianapolis Center
Tue 05:59:21 PM 40.0072 -81.4169 269° West 411 473 40,000  Level Indianapolis Center
Tue 06:00:23 PM 40.0036 -81.5944 269° West 414 476 40,000  Level Indianapolis Center
Tue 06:01:25 PM 40.0006 -81.7483 269° West 418 481 40,000  Level Indianapolis Center
Tue 06:02:27 PM 39.9969 -81.8975 268° West 413 475 40,000  Level Indianapolis Center
Tue 06:03:29 PM 39.9950 -82.0492 269° West 415 478 40,000  Level Indianapolis Center
Tue 06:04:31 PM 39.9897 -82.1997 267° West 414 476 40,000  Level Indianapolis Center
Tue 06:05:34 PM 39.9867 -82.3525 269° West 417 480 40,000  Level Indianapolis Center
Tue 06:06:36 PM 39.9819 -82.5039 268° West 416 479 40,000  Level Indianapolis Center
Tue 06:07:38 PM 39.9778 -82.6792 268° West 412 474 40,000  Level Indianapolis Center
Tue 06:08:40 PM 39.9728 -82.8303 268° West 415 478 40,000  Level Indianapolis Center
Tue 06:09:42 PM 39.9678 -82.9819 268° West 417 480 40,000  Level Indianapolis Center
Tue 06:10:44 PM 39.9642 -83.1328 268° West 414 476 40,000  Level Indianapolis Center
Tue 06:11:46 PM 39.9614 -83.2842 269° West 417 480 40,000  Level Indianapolis Center
Tue 06:12:48 PM 39.9567 -83.4350 268° West 420 483 40,000  Level Indianapolis Center
Tue 06:13:50 PM 39.9483 -83.6106 267° West 423 487 40,000  Level Indianapolis Center
Tue 06:14:52 PM 39.9431 -83.7625 267° West 421 484 40,000  Level Indianapolis Center
Tue 06:15:54 PM 39.9367 -83.9142 267° West 420 483 40,000  Level Indianapolis Center
Tue 06:16:56 PM 39.9306 -84.0686 267° West 423 487 40,000  Level Indianapolis Center
Tue 06:17:58 PM 39.9239 -84.2231 267° West 424 488 40,000  Level Indianapolis Center
Tue 06:19:00 PM 39.9161 -84.4044 267° West 427 491 40,000  Level Indianapolis Center
Tue 06:20:02 PM 39.9092 -84.5594 267° West 427 491 40,000  Level Indianapolis Center
Tue 06:21:04 PM 39.9025 -84.7153 267° West 428 493 40,000  Level Indianapolis Center
Tue 06:22:06 PM 39.8944 -84.8711 266° West 428 493 40,000  Level Indianapolis Center
Tue 06:23:08 PM 39.8872 -85.0386 267° West 431 496 40,000  Level Indianapolis Center
Tue 06:24:10 PM 39.8792 -85.1956 266° West 433 498 40,000  Level Indianapolis Center
Tue 06:25:12 PM 39.8708 -85.3522 266° West 431 496 40,000  Level Indianapolis Center
Tue 06:26:15 PM 39.8628 -85.5072 266° West 429 494 40,000  Level Indianapolis Center
Tue 06:27:17 PM 39.8547 -85.6619 266° West 426 490 40,000  Level Indianapolis Center
Tue 06:28:19 PM 39.8458 -85.8417 266° West 425 489 40,000  Level Indianapolis Center
Tue 06:29:21 PM 39.8364 -85.9956 265° West 425 489 40,000  Level Indianapolis Center
Tue 06:30:23 PM 39.8286 -86.1489 266° West 426 490 40,000  Level Indianapolis Center
Tue 06:31:25 PM 39.8169 -86.3181 265° West 427 491 40,000  Level Indianapolis Center
Tue 06:32:27 PM 39.7892 -86.4742 257° West 436 502 40,000  Level Indianapolis Center
Tue 06:33:29 PM 39.7522 -86.6219 252° West 432 497 40,000  Level Indianapolis Center
Tue 06:34:31 PM 39.7158 -86.7719 253° West 435 501 40,000  Level Indianapolis Center
Tue 06:35:33 PM 39.6786 -86.9214 252° West 434 499 40,000  Level Indianapolis Center
Tue 06:36:35 PM 39.6411 -87.0711 252° West 434 499 40,000 -919 Level Indianapolis Center
Tue 06:37:37 PM 39.6036 -87.2192 252° West 430 495 38,100 -2,516 Descending Indianapolis Center
Tue 06:38:39 PM 39.5606 -87.3908 252° West 429 494 34,800 -1,984 Descending Indianapolis Center
Tue 06:39:41 PM 39.5217 -87.5433 252° West 442 509 34,000 -387 Descending Indianapolis Center
Tue 06:40:43 PM 39.4819 -87.6964 251° West 446 513 34,000 -1,403 Level Indianapolis Center
Tue 06:41:45 PM 39.4428 -87.8506 252° West 448 516 31,100 -2,526 Descending Indianapolis Center
Tue 06:42:37 PM 39.4119 -87.9678 251° West 446 513 29,200 -1,632 Descending Kansas Center
Tue 06:43:39 PM 39.3664 -88.1433 251° West 437 503 28,000 -581 Descending Kansas Center
Tue 06:44:41 PM 39.3306 -88.2900 253° West 433 498 28,000  Level Kansas Center
Tue 06:45:43 PM 39.2906 -88.4381 251° West 433 498 28,000  Level Kansas Center
Tue 06:46:45 PM 39.2486 -88.5850 250° West 434 499 28,000  Level Kansas Center
Tue 06:47:47 PM 39.2122 -88.7269 252° West 432 497 28,000  Level Kansas Center
Tue 06:48:49 PM 39.1719 -88.8722 250° West 432 497 28,000 -919 Level Kansas Center
Tue 06:49:51 PM 39.1239 -89.0486 251° West 433 498 26,100 -2,032 Descending Kansas Center
Tue 06:50:53 PM 39.0878 -89.1881 252° West 415 478 23,800 -2,323 Descending Kansas Center
Tue 06:51:55 PM 39.0547 -89.3333 254° West 397 457 21,300 -2,226 Descending Kansas Center
Tue 06:52:57 PM 39.0264 -89.4631 254° West 381 438 19,200 -2,129 Descending Kansas Center
Tue 06:53:59 PM 38.9956 -89.5972 254° West 367 422 16,900 -2,032 Descending Kansas Center
Tue 06:55:01 PM 38.9583 -89.7142 248° West 357 411 15,000 -1,742 Descending Kansas Center
Tue 06:56:03 PM 38.9203 -89.8336 248° West 341 392 13,300 -1,742 Descending Kansas Center
Tue 06:57:05 PM 38.8875 -89.9381 248° West 333 383 11,400 -1,500 Descending Kansas Center
Tue 06:58:07 PM 38.8553 -90.0417 248° West 318 366 10,200 -1,008 Descending Kansas Center
Tue 06:59:10 PM 38.8258 -90.1319 247° West 284 327 9,300 -1,056 Descending Kansas Center
Tue 07:00:12 PM 38.8017 -90.2194 251° West 269 310 8,000 -1,065 Descending Kansas Center
Tue 07:01:14 PM 38.8403 -90.3139 298° West 255 293 7,100 -677 Descending Kansas Center
Tue 07:02:16 PM 38.8644 -90.3683 300° West 188 216 6,600 -1,113 Descending Kansas Center
Tue 07:03:18 PM 38.8725 -90.4167 282° West 159 183 4,800 -1,645 Descending Kansas Center
Tue 07:04:20 PM 38.8392 -90.4422 211° Southwest 147 169 3,200 -1,355 Descending Kansas Center
Tue 07:05:22 PM 38.8036 -90.4411 179° South 137 158 2,000 -1,016 Descending Kansas Center
Tue 07:06:24 PM 38.7700 -90.4114 145° Southeast 130 150 1,100 -726 Descending Kansas Center
Tue 07:07:26 PM 38.7511 -90.3728 122° Southeast 127 146 500 -581 Descending Kansas Center

Login

Don't have an account? Register now (free) for customized features, flight alerts, and more!